• Join FlightAware (Why Join?)
  • Login
  • US Flag 
08:57PM EDT


 

Airport Tracker/Info


-or-


 

Live Flight TrackerFlight Track Log ✈ UAE35 ✈ 26-Apr-2013 ✈ OMDB / DXB - EGNT / NCL

Flight Track Log - Related Links

Times and Time Zones

All times are in EDT time to prevent confusion due to time zone crossing. See the UAE35 flight status page for this flight to view local times or setup timezone preferences in your user account.

Time Position Orientation Groundspeed Altitude Reporting Facility
EDT Latitude Longitude Course Direction KTS MPH feet Rate Location/Type
11:37PM 25.2730 55.3360 303° West 192 221 1,000  Level FlightAware
11:37PM 25.2860 55.3100 299° West 207 238 2,100 2,700 Climbing FlightAware
11:38PM 25.2920 55.2930 291° West 231 266 2,600 2,640 Climbing FlightAware
11:40PM 25.4394 55.1638 322° Northwest  Level Estimated
11:41PM 25.5270 55.0869 322° Northwest  Level Estimated
11:42PM 25.6132 55.0111 322° Northwest  Level Estimated
11:43PM 25.6993 54.9351 322° Northwest  Level Estimated
11:44PM 25.7854 54.8591 322° Northwest  Level Estimated
11:44PM 25.4040 54.6950 322° Northwest 386 444 18,900  Level FlightAware
11:44PM 25.4200 54.6300 285° West 386 444 18,900  Level FlightAware
11:45PM 25.4350 54.5660 285° West 386 444 18,900  Level FlightAware
11:46PM 25.4510 54.5010 285° West 386 444 18,900  Level FlightAware
11:46PM 25.4670 54.4360 285° West 386 444 18,900  Level FlightAware
11:47PM 25.4860 54.3540 284° West 386 444 18,900 4,860 Level FlightAware
11:48PM 25.5320 54.1730 286° West 30,000 7,080 Climbing FlightAware
11:49PM 25.5600 54.0570 285° West 413 475 31,900 1,260 Climbing FlightAware
11:50PM 25.5790 53.9760 285° West 416 479 32,000 60 Climbing FlightAware
11:50PM 25.5960 53.8990 284° West 415 478 32,000 540 Level FlightAware
11:51PM 25.6210 53.8010 286° West 409 471 32,800 1,440 Climbing FlightAware
11:52PM 25.6420 53.7150 285° West 404 465 34,200 1,860 Climbing FlightAware
11:53PM 25.6620 53.6300 285° West 398 458 35,500 1,320 Climbing FlightAware
11:53PM 25.6810 53.5500 285° West 395 455 36,000 300 Climbing FlightAware
11:54PM 25.7020 53.4630 285° West 397 457 36,000  Level FlightAware
11:55PM 25.7200 53.3860 285° West 396 456 36,000  Level FlightAware
11:55PM 25.7380 53.3080 284° West 393 452 36,000  Level FlightAware
11:56PM 25.7510 53.2180 279° West 388 447 36,000  Level FlightAware
11:57PM 25.7590 53.1370 276° West 387 445 36,000  Level FlightAware
11:57PM 25.7770 53.0500 283° West 401 461 36,000  Level FlightAware
11:58PM 25.8110 52.9770 297° West 405 466 36,000  Level FlightAware
11:59PM 25.8510 52.8960 299° West 404 465 36,000  Level FlightAware
12:00AM 25.8870 52.8210 298° West 399 459 36,000  Level FlightAware
12:00AM 25.9220 52.7480 298° West 398 458 36,000  Level FlightAware
12:01AM 25.9600 52.6680 298° West 399 459 36,000  Level FlightAware
12:02AM 25.9960 52.5930 298° West 400 460 36,000  Level FlightAware
12:02AM 26.0350 52.5110 298° West 402 463 36,000  Level FlightAware
12:03AM 26.0830 52.4110 298° West 409 471 36,000  Level FlightAware
12:04AM 26.1190 52.3350 298° West 410 472 36,000  Level FlightAware
12:05AM 26.1540 52.2610 298° West 412 474 36,000  Level FlightAware
12:05AM 26.1940 52.1760 298° West 412 474 36,000  Level FlightAware
12:06AM 26.2310 52.0990 298° West 412 474 36,000  Level FlightAware
12:07AM 26.2700 52.0160 298° West 412 474 36,000  Level FlightAware
12:07AM 26.3050 51.9410 298° West 411 473 36,000  Level FlightAware
12:08AM 26.3450 51.8560 298° West 404 465 36,000  Level FlightAware
12:09AM 26.3790 51.7830 297° West 402 463 36,000  Level FlightAware
12:10AM 26.4150 51.7070 298° West 403 464 36,000  Level FlightAware
12:11AM 26.4660 51.5970 297° West 402 463 36,000  Level FlightAware
12:11AM 26.5020 51.5220 298° West 403 464 36,000  Level FlightAware
12:12AM 26.5410 51.4510 302° West 413 475 36,000  Level FlightAware
12:13AM 26.5900 51.3720 305° West 411 473 36,000  Level FlightAware
12:13AM 26.6340 51.3020 305° West 416 479 36,000  Level FlightAware
12:14AM 26.6850 51.2220 306° West 409 471 36,000  Level FlightAware
12:15AM 26.7210 51.1640 305° West 409 471 36,000  Level FlightAware
12:15AM 26.7710 51.0820 304° West 412 474 36,000  Level FlightAware
12:16AM 26.8200 51.0020 304° West 414 476 36,000  Level FlightAware
12:17AM 26.8660 50.9280 305° West 414 476 36,000  Level FlightAware
12:18AM 26.9130 50.8510 304° West 414 476 36,000  Level FlightAware
12:18AM 26.9540 50.7830 304° West 413 475 36,000  Level FlightAware
12:19AM 27.0000 50.7080 305° West 411 473 36,000  Level FlightAware
12:20AM 27.0470 50.6310 304° West 411 473 36,000  Level FlightAware
12:20AM 27.0890 50.5590 303° West 411 473 36,000  Level FlightAware
12:21AM 27.1250 50.4990 304° West 411 473 36,000  Level FlightAware
12:22AM 27.1600 50.4380 303° West 411 473 36,000  Level FlightAware
12:22AM 27.1950 50.3770 303° West 411 473 36,000  Level FlightAware
12:23AM 27.2390 50.3000 303° West 411 473 36,000  Level FlightAware
12:24AM 27.2740 50.2390 303° West 411 473 36,000  Level FlightAware
12:24AM 27.3090 50.1780 303° West 411 473 36,000  Level FlightAware
12:25AM 27.3450 50.1170 304° West 411 473 36,000  Level FlightAware
12:26AM 27.3800 50.0560 303° West 411 473 36,000  Level FlightAware
12:27AM 27.4240 49.9800 303° West 411 473 36,000  Level FlightAware
12:27AM 27.4590 49.9190 303° West 411 473 36,000  Level FlightAware
12:28AM 27.4940 49.8580 303° West 411 473 36,000  Level FlightAware
12:29AM 27.5290 49.7970 303° West 411 473 36,000  Level FlightAware
12:29AM 27.5650 49.7350 303° West 411 473 36,000  Level FlightAware
12:32AM 27.7526 49.5656 321° Northwest  Level Estimated
12:32AM 27.9180 49.4340 321° Northwest 36,000  Level FlightAware
12:33AM 27.9960 49.3780 328° Northwest 434 499 36,000  Level FlightAware
12:33AM 28.0510 49.3390 328° Northwest 436 502 36,000  Level FlightAware
12:34AM 28.1280 49.2840 328° Northwest 435 501 36,000  Level FlightAware
12:35AM 28.2070 49.2290 328° Northwest 430 495 36,000  Level FlightAware
12:35AM 28.2750 49.1810 328° Northwest 429 494 36,000  Level FlightAware
12:36AM 28.3460 49.1300 328° Northwest 430 495 36,000  Level FlightAware
12:37AM 28.4140 49.0820 328° Northwest 430 495 36,000  Level FlightAware
12:38AM 28.4880 49.0290 328° Northwest 431 496 36,000  Level FlightAware
12:38AM 28.5620 48.9770 328° Northwest 434 499 36,000  Level FlightAware
12:39AM 28.6260 48.9310 328° Northwest 435 501 36,000  Level FlightAware
12:40AM 28.7050 48.8750 328° Northwest 436 502 36,000  Level FlightAware
12:40AM 28.7790 48.8210 327° Northwest 435 501 36,000  Level FlightAware
12:41AM 28.8380 48.7790 328° Northwest 436 502 36,000  Level FlightAware
12:42AM 28.9190 48.7210 328° Northwest 436 502 36,000  Level FlightAware
12:42AM 28.9810 48.6760 328° Northwest 435 501 36,000  Level FlightAware
12:43AM 29.0780 48.6060 328° Northwest 434 499 36,000  Level FlightAware
12:44AM 29.1360 48.5640 328° Northwest 434 499 36,000  Level FlightAware
12:45AM 29.2190 48.5050 328° Northwest 432 497 36,000  Level FlightAware
12:46AM 29.2990 48.4460 327° Northwest 429 494 36,000  Level FlightAware
12:46AM 29.3660 48.3980 328° Northwest 428 493 36,000  Level FlightAware
12:47AM 29.4510 48.3370 328° Northwest 428 493 36,000  Level FlightAware
12:48AM 29.5180 48.2870 327° Northwest 428 493 36,000  Level FlightAware
12:49AM 29.6010 48.2270 328° Northwest 425 489 36,000  Level FlightAware
12:49AM 29.6680 48.1780 328° Northwest 425 489 36,000  Level FlightAware
12:50AM 29.7610 48.1090 327° Northwest 425 489 36,000  Level FlightAware
12:51AM 29.8170 48.0670 327° Northwest 425 489 36,000  Level FlightAware
12:52AM 29.8760 48.0260 329° Northwest 425 489 36,000  Level FlightAware
12:52AM 29.9630 47.9620 327° Northwest 425 489 36,000  Level FlightAware
12:53AM 30.0440 47.8890 322° Northwest 411 473 36,000  Level FlightAware
12:54AM 30.0900 47.8270 311° West 407 468 36,000  Level FlightAware
12:54AM 30.1160 47.7930 311° West 407 468 36,000  Level FlightAware
12:55AM 30.1790 47.7090 311° West 409 471 36,000  Level FlightAware
12:56AM 30.2260 47.6440 310° West 409 471 36,000  Level FlightAware
12:57AM 30.2680 47.5870 310° West 409 471 36,000  Level FlightAware
12:57AM 30.3090 47.5290 309° West 409 471 36,000  Level FlightAware
12:58AM 30.3500 47.4720 310° West 409 471 36,000  Level FlightAware
12:59AM 30.3920 47.4150 311° West 409 471 36,000  Level FlightAware
12:59AM 30.4330 47.3580 310° West 409 471 36,000  Level FlightAware
01:00AM 30.4850 47.2870 310° West 409 471 36,000  Level FlightAware
01:01AM 30.5260 47.2290 309° West 409 471 36,000  Level FlightAware
01:02AM 30.5670 47.1720 310° West 409 471 36,000  Level FlightAware
01:02AM 30.6090 47.1150 311° West 409 471 36,000  Level FlightAware
01:03AM 30.6600 47.0430 309° West 409 471 36,000  Level FlightAware
01:04AM 30.7020 46.9860 311° West 409 471 36,000  Level FlightAware
01:04AM 30.7430 46.9290 310° West 409 471 36,000  Level FlightAware
01:05AM 30.7840 46.8710 309° West 409 471 36,000  Level FlightAware
01:08AM 30.9886 46.6698 320° Northwest  Level Estimated
01:09AM 31.0726 46.5868 320° Northwest  Level Estimated
01:10AM 31.1565 46.5038 320° Northwest  Level Estimated
01:11AM 31.2404 46.4205 320° Northwest  Level Estimated
01:12AM 31.3243 46.3372 320° Northwest  Level Estimated
01:13AM 31.4081 46.2536 320° Northwest  Level Estimated
01:14AM 31.4918 46.1699 320° Northwest  Level Estimated
01:15AM 31.5755 46.0861 320° Northwest  Level Estimated
01:16AM 31.6591 46.0021 319° Northwest  Level Estimated
01:17AM 31.7426 45.9180 319° Northwest  Level Estimated
01:17AM 32.0220 45.3760 319° Northwest 451 519 36,000  Level FlightAware
01:18AM 31.8261 45.8337 319° Northwest  Level Estimated
01:18AM 32.1050 45.3380 339° North 452 520 36,000  Level FlightAware
01:19AM 32.1770 45.3010 336° Northwest 452 520 36,000  Level FlightAware
01:20AM 32.2920 45.2450 338° Northwest 451 519 36,000  Level FlightAware
01:21AM 32.3800 45.2050 339° North 450 518 36,000  Level FlightAware
01:21AM 32.4640 45.1670 339° North 450 518 36,000  Level FlightAware
01:22AM 32.5400 45.1320 339° North 450 518 36,000  Level FlightAware
01:23AM 32.6270 45.0910 338° Northwest 448 516 36,000  Level FlightAware
01:23AM 32.7040 45.0470 334° Northwest 446 513 36,000  Level FlightAware
01:24AM 32.7740 45.0040 333° Northwest 446 513 36,000  Level FlightAware
01:25AM 32.8600 44.9510 333° Northwest 445 512 36,000  Level FlightAware
01:25AM 32.9340 44.9070 333° Northwest 444 511 36,000  Level FlightAware
01:26AM 33.0150 44.8570 333° Northwest 445 512 36,000  Level FlightAware
01:27AM 33.0880 44.8120 333° Northwest 444 511 36,000  Level FlightAware
01:27AM 33.1610 44.7680 333° Northwest 444 511 36,000  Level FlightAware
01:28AM 33.2440 44.7240 336° Northwest 449 517 36,000  Level FlightAware
01:29AM 33.3240 44.6940 343° North 447 514 36,000  Level FlightAware
01:30AM 33.4140 44.6610 343° North 446 513 36,000  Level FlightAware
01:30AM 33.4930 44.6320 343° North 445 512 36,000  Level FlightAware
01:31AM 33.5690 44.5990 340° North 441 507 36,000  Level FlightAware
01:32AM 33.6570 44.5560 338° Northwest 441 507 36,000  Level FlightAware
01:32AM 33.7390 44.5160 338° Northwest 443 510 36,000  Level FlightAware
01:33AM 33.8050 44.4830 337° Northwest 444 511 36,000  Level FlightAware
01:34AM 33.8910 44.4410 338° Northwest 444 511 36,000  Level FlightAware
01:35AM 33.9790 44.3970 337° Northwest 446 513 36,000  Level FlightAware
01:35AM 34.0520 44.3610 338° Northwest 445 512 36,000  Level FlightAware
01:36AM 34.1420 44.3160 338° Northwest 446 513 36,000  Level FlightAware
01:37AM 34.2140 44.2810 338° Northwest 444 511 36,000  Level FlightAware
01:37AM 34.3030 44.2360 337° Northwest 442 509 36,000  Level FlightAware
01:38AM 34.3790 44.1980 338° Northwest 444 511 36,000  Level FlightAware
01:39AM 34.4550 44.1600 338° Northwest 445 512 36,000  Level FlightAware
01:39AM 34.5420 44.1170 338° Northwest 444 511 36,000  Level FlightAware
01:40AM 34.6180 44.0760 336° Northwest 447 514 36,000  Level FlightAware
01:41AM 34.7010 44.0330 337° Northwest 449 517 36,000  Level FlightAware
01:41AM 34.7700 43.9960 336° Northwest 448 516 36,000  Level FlightAware
01:42AM 34.8530 43.9530 337° Northwest 446 513 36,000  Level FlightAware
01:43AM 34.9300 43.9120 336° Northwest 446 513 36,000  Level FlightAware
01:44AM 35.0040 43.8730 337° Northwest 447 514 36,000  Level FlightAware
01:44AM 35.1010 43.8220 337° Northwest 446 513 36,000  Level FlightAware
01:45AM 35.1760 43.7820 336° Northwest 443 510 36,000  Level FlightAware
01:46AM 35.2500 43.7420 336° Northwest 442 509 36,000  Level FlightAware
01:46AM 35.3380 43.6960 337° Northwest 442 509 36,000  Level FlightAware
01:47AM 35.4130 43.6560 337° Northwest 442 509 36,000  Level FlightAware
01:48AM 35.4970 43.6110 336° Northwest 443 510 36,000  Level FlightAware
01:49AM 35.5730 43.5700 336° Northwest 443 510 36,000  Level FlightAware
01:49AM 35.6480 43.5300 337° Northwest 443 510 36,000  Level FlightAware
01:50AM 35.7300 43.4860 336° Northwest 443 510 36,000  Level FlightAware
01:51AM 35.8050 43.4450 336° Northwest 443 510 36,000  Level FlightAware
01:51AM 35.8810 43.4050 337° Northwest 443 510 36,000  Level FlightAware
01:52AM 35.9670 43.3580 336° Northwest 443 510 36,000  Level FlightAware
01:53AM 36.0410 43.3180 336° Northwest 443 510 36,000  Level FlightAware
01:53AM 36.1170 43.2770 336° Northwest 444 511 36,000  Level FlightAware
01:54AM 36.1990 43.2310 336° Northwest 444 511 36,000  Level FlightAware
01:55AM 36.2750 43.1900 336° Northwest 442 509 36,000  Level FlightAware
01:56AM 36.3600 43.1420 336° Northwest 443 510 36,000  Level FlightAware
01:56AM 36.4330 43.1020 336° Northwest 442 509 36,000  Level FlightAware
01:57AM 36.5170 43.0560 336° Northwest 441 507 36,000  Level FlightAware
01:58AM 36.5930 43.0140 336° Northwest 441 507 36,000  Level FlightAware
01:58AM 36.6680 42.9720 336° Northwest 443 510 36,000  Level FlightAware
01:59AM 36.7520 42.9250 336° Northwest 445 512 36,000  Level FlightAware
02:00AM 36.8280 42.8830 336° Northwest 446 513 36,000  Level FlightAware
02:00AM 36.9030 42.8420 336° Northwest 448 516 36,000  Level FlightAware
02:01AM 36.9890 42.7940 336° Northwest 448 516 36,000  Level FlightAware
02:02AM 37.0630 42.7530 336° Northwest 448 516 36,000  Level FlightAware
02:03AM 37.1500 42.7050 336° Northwest 448 516 36,000  Level FlightAware
02:03AM 37.2260 42.6610 335° Northwest 447 514 36,000  Level FlightAware
02:04AM 37.2990 42.5920 323° Northwest 448 516 36,000  Level FlightAware
02:05AM 37.3590 42.5230 318° Northwest 448 516 36,000  Level FlightAware
02:05AM 37.4290 42.4420 317° Northwest 447 514 36,000  Level FlightAware
02:06AM 37.4920 42.3700 318° Northwest 445 512 36,000  Level FlightAware
02:07AM 37.5510 42.3000 317° Northwest 446 513 36,000  Level FlightAware
02:07AM 37.6190 42.2220 318° Northwest 445 512 36,000  Level FlightAware
02:08AM 37.6790 42.1520 317° Northwest 445 512 36,000  Level FlightAware
02:09AM 37.7490 42.0710 318° Northwest 445 512 36,000  Level FlightAware
02:10AM 37.8080 42.0010 317° Northwest 444 511 36,000  Level FlightAware
02:10AM 37.8680 41.9310 317° Northwest 444 511 36,000  Level FlightAware
02:11AM 37.9320 41.8500 315° West 445 512 36,000  Level FlightAware
02:12AM 37.9860 41.7730 312° West 444 511 36,000  Level FlightAware
02:12AM 38.0370 41.6990 311° West 445 512 36,000  Level FlightAware
02:13AM 38.0830 41.6320 311° West 445 512 36,000  Level FlightAware
02:14AM 38.1280 41.5650 311° West 445 512 36,000  Level FlightAware
02:14AM 38.2160 41.4410 312° West 450 518 36,000  Level FlightAware
02:15AM 38.2700 41.3630 311° West 450 518 36,000  Level FlightAware
02:16AM 38.3160 41.2950 311° West 450 518 36,000  Level FlightAware
02:16AM 38.3620 41.2270 311° West 450 518 36,000  Level FlightAware
02:17AM 38.4090 41.1590 311° West 450 518 36,000  Level FlightAware
02:18AM 38.4670 41.0730 311° West 450 518 36,000  Level FlightAware
02:19AM 38.5130 41.0050 311° West 450 518 36,000  Level FlightAware
02:19AM 38.5600 40.9370 311° West 450 518 36,000  Level FlightAware
02:20AM 38.6060 40.8680 310° West 450 518 36,000  Level FlightAware
02:21AM 38.6640 40.7830 311° West 450 518 36,000  Level FlightAware
02:21AM 38.7110 40.7140 311° West 450 518 36,000  Level FlightAware
02:22AM 38.7570 40.6460 311° West 450 518 36,000  Level FlightAware
02:23AM 38.8040 40.5770 311° West 450 518 36,000  Level FlightAware
02:23AM 38.8500 40.5090 311° West 450 518 36,000  Level FlightAware
02:24AM 38.9080 40.4230 311° West 450 518 36,000  Level FlightAware
02:27AM 39.0746 40.2003 314° West  Level Estimated
02:28AM 39.1507 40.0979 314° West  Level Estimated
02:29AM 39.2268 39.9954 314° West  Level Estimated
02:30AM 39.3028 39.8926 314° West  Level Estimated
02:31AM 39.3786 39.7896 314° West  Level Estimated
02:32AM 39.4544 39.6863 314° West  Level Estimated
02:33AM 39.5301 39.5829 314° West  Level Estimated
02:34AM 39.6057 39.4792 313° West  Level Estimated
02:35AM 39.6813 39.3752 313° West  Level Estimated
02:36AM 39.7567 39.2711 313° West  Level Estimated
02:37AM 39.8320 39.1667 313° West  Level Estimated
02:38AM 39.9072 39.0621 313° West  Level Estimated
02:39AM 39.9824 38.9573 313° West  Level Estimated
02:40AM 40.0574 38.8522 313° West  Level Estimated
02:41AM 40.1324 38.7469 313° West  Level Estimated
02:42AM 40.2072 38.6414 313° West  Level Estimated
02:43AM 40.2820 38.5356 313° West  Level Estimated
02:44AM 40.3567 38.4296 313° West  Level Estimated
02:45AM 40.4313 38.3234 313° West  Level Estimated
02:46AM 40.5057 38.2169 313° West  Level Estimated
02:47AM 40.5801 38.1102 313° West  Level Estimated
02:48AM 40.6544 38.0033 312° West  Level Estimated
02:49AM 40.7285 37.8961 312° West  Level Estimated
02:50AM 40.8026 37.7887 312° West  Level Estimated
02:51AM 40.8766 37.6810 312° West  Level Estimated
02:52AM 40.9505 37.5731 312° West  Level Estimated
02:53AM 41.0243 37.4650 312° West  Level Estimated
02:54AM 41.0979 37.3566 312° West  Level Estimated
02:55AM 41.1715 37.2480 312° West  Level Estimated
02:56AM 41.2450 37.1391 312° West  Level Estimated
02:57AM 41.3183 37.0300 312° West  Level Estimated
02:58AM 41.3916 36.9206 312° West  Level Estimated
02:59AM 41.4648 36.8110 312° West  Level Estimated
03:00AM 41.5378 36.7012 312° West  Level Estimated
03:01AM 41.6108 36.5911 312° West  Level Estimated
03:02AM 41.6836 36.4807 311° West  Level Estimated
03:03AM 41.7564 36.3701 311° West  Level Estimated
03:04AM 41.8290 36.2593 311° West  Level Estimated
03:05AM 41.9015 36.1482 311° West  Level Estimated
03:06AM 41.9739 36.0368 311° West  Level Estimated
03:07AM 42.0462 35.9252 311° West  Level Estimated
03:08AM 42.1185 35.8133 311° West  Level Estimated
03:09AM 42.1905 35.7012 311° West  Level Estimated
03:09AM 42.4690 34.5930 311° West 447 514 38,000  Level FlightAware
03:10AM 42.2625 35.5888 311° West  Level Estimated
03:10AM 42.5190 34.5100 309° West 453 521 38,000  Level FlightAware
03:10AM 42.5550 34.4000 294° West 456 525 38,000  Level FlightAware
03:11AM 42.5950 34.2830 295° West 457 526 38,000  Level FlightAware
03:12AM 42.6330 34.1800 297° West 457 526 38,000  Level FlightAware
03:12AM 42.6750 34.0660 297° West 457 526 38,000  Level FlightAware
03:13AM 42.7130 33.9620 296° West 458 527 38,000  Level FlightAware
03:14AM 42.7470 33.8580 294° West 458 527 38,000  Level FlightAware
03:14AM 42.7880 33.7430 296° West 455 524 38,000  Level FlightAware
03:15AM 42.8330 33.6440 302° West 454 522 38,000  Level FlightAware
03:16AM 42.8830 33.5360 302° West 454 522 38,000  Level FlightAware
03:17AM 42.9280 33.4420 303° West 453 521 38,000  Level FlightAware
03:17AM 42.9740 33.3450 303° West 452 520 38,000  Level FlightAware
03:18AM 43.0250 33.2380 303° West 453 521 38,000  Level FlightAware
03:19AM 43.0710 33.1410 303° West 453 521 38,000  Level FlightAware
03:19AM 43.1220 33.0320 303° West 453 521 38,000  Level FlightAware
03:20AM 43.1620 32.9470 303° West 454 522 38,000  Level FlightAware
03:21AM 43.2170 32.8290 303° West 451 519 38,000  Level FlightAware
03:21AM 43.2630 32.7310 303° West 449 517 38,000  Level FlightAware
03:22AM 43.3060 32.6370 302° West 448 516 38,000  Level FlightAware
03:23AM 43.3520 32.5380 303° West 448 516 38,000  Level FlightAware
03:24AM 43.3990 32.4340 302° West 450 518 38,000  Level FlightAware
03:24AM 43.4510 32.3220 303° West 449 517 38,000  Level FlightAware
03:25AM 43.4940 32.2270 302° West 448 516 38,000  Level FlightAware
03:26AM 43.5440 32.1170 302° West 448 516 38,000  Level FlightAware
03:26AM 43.5880 32.0210 302° West 448 516 38,000  Level FlightAware
03:27AM 43.6320 31.9240 302° West 448 516 38,000  Level FlightAware
03:28AM 43.6810 31.8150 302° West 446 513 38,000  Level FlightAware
03:28AM 43.7240 31.7200 302° West 446 513 38,000  Level FlightAware
03:29AM 43.7730 31.6090 301° West 447 514 38,000  Level FlightAware
03:30AM 43.8170 31.5110 302° West 449 517 38,000  Level FlightAware
03:31AM 43.8590 31.4170 302° West 448 516 38,000  Level FlightAware
03:31AM 43.9090 31.3040 302° West 446 513 38,000  Level FlightAware
03:32AM 43.9520 31.2070 302° West 446 513 38,000  Level FlightAware
03:33AM 44.0000 31.0970 301° West 444 511 38,000  Level FlightAware
03:33AM 44.0420 31.0000 301° West 444 511 38,000  Level FlightAware
03:34AM 44.0850 30.9020 301° West 444 511 38,000  Level FlightAware
03:35AM 44.1330 30.7920 301° West 442 509 38,000  Level FlightAware
03:35AM 44.1750 30.6950 301° West 443 510 38,000  Level FlightAware
03:36AM 44.2170 30.5970 301° West 442 509 38,000  Level FlightAware
03:37AM 44.2610 30.4960 301° West 442 509 38,000  Level FlightAware
03:38AM 44.3110 30.3780 301° West 443 510 38,000  Level FlightAware
03:38AM 44.3590 30.2670 301° West 444 511 38,000  Level FlightAware
03:39AM 44.4180 30.1270 301° West 442 509 38,000  Level FlightAware
03:40AM 44.4660 30.0320 305° West 438 504 38,000  Level FlightAware
03:41AM 44.5140 29.9380 306° West 438 504 38,000  Level FlightAware
03:41AM 44.5570 29.8510 305° West 439 505 38,000  Level FlightAware
03:42AM 44.6300 29.7030 305° West 441 507 38,000  Level FlightAware
03:43AM 44.6750 29.6110 305° West 441 507 38,000  Level FlightAware
03:44AM 44.7170 29.5240 304° West 441 507 38,000  Level FlightAware
03:45AM 44.7920 29.3700 304° West 441 507 38,000  Level FlightAware
03:45AM 44.8320 29.2870 304° West 441 507 38,000  Level FlightAware
03:46AM 44.8870 29.1740 305° West 442 509 38,000  Level FlightAware
03:47AM 44.9550 29.0320 304° West 443 510 38,000  Level FlightAware
03:48AM 45.0030 28.9330 304° West 443 510 38,000  Level FlightAware
03:49AM 45.0490 28.8360 304° West 444 511 38,000  Level FlightAware
03:49AM 45.0950 28.7390 304° West 444 511 38,000  Level FlightAware
03:50AM 45.1430 28.6400 305° West 445 512 38,000  Level FlightAware
03:50AM 45.1760 28.5710 304° West 443 510 38,000  Level FlightAware
03:51AM 45.2370 28.4410 304° West 443 510 38,000  Level FlightAware
03:52AM 45.2880 28.3340 304° West 441 507 38,000  Level FlightAware
03:53AM 45.3330 28.2380 304° West 441 507 38,000  Level FlightAware
03:53AM 45.3810 28.1360 304° West 442 509 38,000  Level FlightAware
03:54AM 45.4310 28.0290 304° West 442 509 38,000  Level FlightAware
03:55AM 45.4750 27.9360 304° West 442 509 38,000  Level FlightAware
03:55AM 45.5230 27.8320 303° West 443 510 38,000  Level FlightAware
03:56AM 45.5700 27.7300 303° West 442 509 38,000  Level FlightAware
03:57AM 45.6230 27.6160 304° West 443 510 38,000  Level FlightAware
03:58AM 45.6680 27.5170 303° West 443 510 38,000  Level FlightAware
03:58AM 45.7060 27.4330 303° West 443 510 38,000  Level FlightAware
03:59AM 45.7530 27.3320 304° West 443 510 38,000  Level FlightAware
04:00AM 45.8120 27.2020 303° West 443 510 38,000  Level FlightAware
04:00AM 45.8540 27.1090 303° West 443 510 38,000  Level FlightAware
04:01AM 45.9070 26.9920 303° West 444 511 38,000  Level FlightAware
04:02AM 45.9520 26.8910 303° West 444 511 38,000  Level FlightAware
04:02AM 45.9940 26.7960 302° West 443 510 38,000  Level FlightAware
04:03AM 46.0420 26.6900 303° West 443 510 38,000  Level FlightAware
04:04AM 46.0950 26.5700 303° West 443 510 38,000  Level FlightAware
04:05AM 46.1350 26.4790 302° West 444 511 38,000  Level FlightAware
04:05AM 46.1800 26.3770 303° West 445 512 38,000  Level FlightAware
04:06AM 46.2290 26.2650 302° West 445 512 38,000  Level FlightAware
04:07AM 46.2750 26.1610 303° West 446 513 38,000  Level FlightAware
04:07AM 46.3160 26.0660 302° West 446 513 38,000  Level FlightAware
04:08AM 46.3630 25.9580 302° West 446 513 38,000  Level FlightAware
04:09AM 46.4060 25.8590 302° West 447 514 38,000  Level FlightAware
04:09AM 46.4540 25.7480 302° West 446 513 38,000  Level FlightAware
04:10AM 46.5040 25.6310 302° West 446 513 38,000  Level FlightAware
04:11AM 46.5440 25.5380 302° West 447 514 38,000  Level FlightAware
04:12AM 46.5960 25.4160 302° West 446 513 38,000  Level FlightAware
04:12AM 46.6410 25.3090 302° West 447 514 38,000  Level FlightAware
04:13AM 46.6870 25.2010 302° West 448 516 38,000  Level FlightAware
04:14AM 46.7310 25.0960 301° West 448 516 38,000  Level FlightAware
04:14AM 46.7750 24.9930 302° West 450 518 38,000  Level FlightAware
04:15AM 46.8190 24.8870 301° West 450 518 38,000  Level FlightAware
04:16AM 46.8740 24.7550 301° West 450 518 38,000  Level FlightAware
04:18AM 46.9796 24.5420 306° West  Level Estimated
04:19AM 47.0440 24.4112 306° West  Level Estimated
04:20AM 47.1083 24.2801 306° West  Level Estimated
04:21AM 47.1724 24.1487 306° West  Level Estimated
04:22AM 47.2364 24.0169 306° West  Level Estimated
04:23AM 47.3003 23.8849 306° West  Level Estimated
04:24AM 47.3639 23.7525 305° West  Level Estimated
04:25AM 47.4275 23.6198 305° West  Level Estimated
04:26AM 47.4908 23.4867 305° West  Level Estimated
04:26AM 47.5210 23.1490 305° West 447 514 38,000  Level FlightAware
04:27AM 47.5630 23.0400 300° West 447 514 38,000  Level FlightAware
04:27AM 47.6020 22.9410 300° West 448 516 38,000  Level FlightAware
04:28AM 47.6460 22.8280 300° West 449 517 38,000  Level FlightAware
04:29AM 47.6850 22.7260 300° West 449 517 38,000  Level FlightAware
04:30AM 47.7380 22.5890 300° West 443 510 38,000  Level FlightAware
04:30AM 47.7790 22.4810 299° West 443 510 38,000  Level FlightAware
04:31AM 47.8240 22.3610 299° West 448 516 38,000  Level FlightAware
04:32AM 47.8630 22.2530 298° West 449 517 38,000  Level FlightAware
04:32AM 47.9040 22.1410 299° West 448 516 38,000  Level FlightAware
04:33AM 47.9490 22.0160 298° West 448 516 38,000  Level FlightAware
04:34AM 47.9870 21.9090 298° West 449 517 38,000  Level FlightAware
04:34AM 48.0270 21.7980 298° West 448 516 38,000  Level FlightAware
04:35AM 48.0700 21.6780 298° West 448 516 38,000  Level FlightAware
04:36AM 48.1080 21.5700 298° West 447 514 38,000  Level FlightAware
04:37AM 48.1520 21.4450 298° West 446 513 38,000  Level FlightAware
04:37AM 48.1910 21.3350 298° West 447 514 38,000  Level FlightAware
04:38AM 48.2330 21.2150 298° West 447 514 38,000  Level FlightAware
04:39AM 48.2720 21.1050 298° West 447 514 38,000  Level FlightAware
04:39AM 48.3100 20.9940 297° West 448 516 38,000  Level FlightAware
04:40AM 48.3490 20.8830 298° West 448 516 38,000  Level FlightAware
04:41AM 48.3890 20.7650 297° West 447 514 38,000  Level FlightAware
04:41AM 48.4260 20.6580 298° West 447 514 38,000  Level FlightAware
04:42AM 48.4710 20.5260 297° West 446 513 38,000  Level FlightAware
04:43AM 48.5080 20.4160 297° West 445 512 38,000  Level FlightAware
04:44AM 48.5500 20.2930 297° West 446 513 38,000  Level FlightAware
04:44AM 48.5880 20.1790 297° West 446 513 38,000  Level FlightAware
04:45AM 48.6300 20.0550 297° West 447 514 38,000  Level FlightAware
04:46AM 48.6670 19.9430 297° West 448 516 38,000  Level FlightAware
04:46AM 48.7040 19.8310 297° West 448 516 38,000  Level FlightAware
04:47AM 48.7480 19.7070 298° West 450 518 38,000  Level FlightAware
04:48AM 48.7870 19.5960 298° West 450 518 38,000  Level FlightAware
04:49AM 48.8300 19.4700 297° West 450 518 38,000  Level FlightAware
04:49AM 48.8680 19.3590 298° West 450 518 38,000  Level FlightAware
04:50AM 48.9070 19.2460 298° West 449 517 38,000  Level FlightAware
04:51AM 48.9490 19.1210 297° West 449 517 38,000  Level FlightAware
04:51AM 48.9890 19.0050 298° West 448 516 38,000  Level FlightAware
04:52AM 49.0230 18.9030 297° West 447 514 38,000  Level FlightAware
04:53AM 49.0670 18.7730 297° West 447 514 38,000  Level FlightAware
04:53AM 49.1040 18.6600 297° West 446 513 38,000  Level FlightAware
04:54AM 49.1430 18.5290 295° West 447 514 38,000  Level FlightAware
04:55AM 49.1750 18.4140 293° West 446 513 38,000  Level FlightAware
04:55AM 49.2090 18.2960 294° West 446 513 38,000  Level FlightAware
04:56AM 49.2460 18.1680 294° West 447 514 38,000  Level FlightAware
04:57AM 49.2740 18.0540 291° West 442 509 38,000  Level FlightAware
04:58AM 49.2970 17.9340 286° West 443 510 38,000  Level FlightAware
04:58AM 49.3260 17.7960 288° West 443 510 38,000  Level FlightAware
04:59AM 49.3520 17.6770 289° West 443 510 38,000  Level FlightAware
05:00AM 49.3780 17.5570 288° West 443 510 38,000  Level FlightAware
05:00AM 49.4090 17.4100 288° West 443 510 38,000  Level FlightAware
05:01AM 49.4340 17.2880 288° West 443 510 38,000  Level FlightAware
05:02AM 49.4580 17.1680 287° West 443 510 38,000  Level FlightAware
05:02AM 49.4820 17.0470 287° West 444 511 38,000  Level FlightAware
05:03AM 49.5050 16.9260 286° West 444 511 38,000  Level FlightAware
05:04AM 49.5310 16.7920 287° West 444 511 38,000  Level FlightAware
05:04AM 49.5510 16.6920 287° West 445 512 38,000  Level FlightAware
05:05AM 49.5810 16.5350 286° West 445 512 38,000  Level FlightAware
05:06AM 49.6070 16.3990 286° West 445 512 38,000  Level FlightAware
05:07AM 49.6290 16.2800 286° West 445 512 38,000  Level FlightAware
05:07AM 49.6530 16.1580 287° West 445 512 38,000  Level FlightAware
05:08AM 49.6770 16.0270 286° West 445 512 38,000  Level FlightAware
05:09AM 49.7000 15.9030 286° West 444 511 38,000  Level FlightAware
05:10AM 49.7240 15.7710 286° West 441 507 38,000  Level FlightAware
05:10AM 49.7480 15.6440 286° West 439 505 38,000  Level FlightAware
05:11AM 49.7700 15.5210 286° West 439 505 38,000  Level FlightAware
05:12AM 49.7940 15.3890 286° West 439 505 38,000  Level FlightAware
05:12AM 49.8160 15.2660 286° West 441 507 38,000  Level FlightAware
05:13AM 49.8370 15.1460 285° West 440 506 38,000  Level FlightAware
05:14AM 49.8620 15.0060 286° West 441 507 38,000  Level FlightAware
05:14AM 49.8840 14.8830 286° West 441 507 38,000  Level FlightAware
05:15AM 49.9070 14.7470 285° West 442 509 38,000  Level FlightAware
05:16AM 49.9290 14.6260 286° West 439 505 38,000  Level FlightAware
05:17AM 49.9520 14.4910 285° West 439 505 38,000  Level FlightAware
05:17AM 49.9730 14.3650 285° West 441 507 38,000  Level FlightAware
05:18AM 49.9940 14.2410 285° West 441 507 38,000  Level FlightAware
05:18AM 50.0110 14.1390 285° West 441 507 38,000  Level FlightAware
05:19AM 50.0370 13.9860 285° West 441 507 38,000  Level FlightAware
05:20AM 50.0600 13.8460 284° West 444 511 38,000  Level FlightAware
05:21AM 50.0900 13.7270 291° West 448 516 38,000  Level FlightAware
05:21AM 50.1230 13.6250 297° West 448 516 38,000  Level FlightAware
05:22AM 50.1690 13.4860 297° West 449 517 38,000  Level FlightAware
05:23AM 50.2050 13.3750 297° West 451 519 38,000  Level FlightAware
05:24AM 50.2480 13.2440 297° West 449 517 38,000  Level FlightAware
05:24AM 50.2890 13.1200 297° West 446 513 38,000  Level FlightAware
05:25AM 50.3220 13.0180 297° West 447 514 38,000  Level FlightAware
05:26AM 50.3670 12.8810 297° West 446 513 38,000  Level FlightAware
05:26AM 50.4060 12.7590 297° West 446 513 38,000  Level FlightAware
05:27AM 50.4410 12.6500 297° West 446 513 38,000  Level FlightAware
05:28AM 50.4830 12.5180 297° West 442 509 38,000  Level FlightAware
05:28AM 50.5170 12.4100 296° West 440 506 38,000  Level FlightAware
05:29AM 50.5570 12.2840 297° West 442 509 38,000  Level FlightAware
05:30AM 50.5940 12.1640 296° West 441 507 38,000  Level FlightAware
05:30AM 50.6320 12.0420 296° West 442 509 38,000  Level FlightAware
05:31AM 50.6690 11.9220 296° West 443 510 38,000  Level FlightAware
05:32AM 50.7120 11.7830 296° West 445 512 38,000  Level FlightAware
05:33AM 50.7480 11.6650 296° West 448 516 38,000  Level FlightAware
05:33AM 50.7820 11.5510 295° West 443 510 38,000  Level FlightAware
05:34AM 50.8210 11.4230 296° West 440 506 38,000  Level FlightAware
05:35AM 50.8550 11.3100 296° West 439 505 38,000  Level FlightAware
05:35AM 50.8920 11.1870 296° West 437 503 38,000  Level FlightAware
05:36AM 50.9290 11.0600 295° West 437 503 38,000  Level FlightAware
05:37AM 50.9650 10.9400 296° West 437 503 38,000  Level FlightAware
05:38AM 51.0030 10.8120 295° West 437 503 38,000  Level FlightAware
05:38AM 51.0380 10.6920 295° West 441 507 38,000  Level FlightAware
05:39AM 51.0730 10.5730 295° West 444 511 38,000  Level FlightAware
05:40AM 51.1040 10.4640 294° West 445 512 38,000  Level FlightAware
05:40AM 51.1440 10.3250 295° West 445 512 38,000  Level FlightAware
05:41AM 51.1810 10.1960 295° West 446 513 38,000  Level FlightAware
05:42AM 51.2180 10.0670 295° West 447 514 38,000  Level FlightAware
05:42AM 51.2550 9.9370 294° West 448 516 38,000  Level FlightAware
05:43AM 51.2890 9.8150 294° West 447 514 38,000  Level FlightAware
05:44AM 51.3230 9.6950 294° West 446 513 38,000  Level FlightAware
05:44AM 51.3470 9.6070 294° West 446 513 38,000  Level FlightAware
05:45AM 51.3790 9.4910 294° West 447 514 38,000  Level FlightAware
05:46AM 51.4190 9.3460 294° West 449 517 38,000  Level FlightAware
05:46AM 51.4450 9.2530 294° West 449 517 38,000  Level FlightAware
05:47AM 51.4880 9.0940 294° West 451 519 38,000  Level FlightAware
05:48AM 51.5220 8.9710 294° West 452 520 38,000  Level FlightAware
05:48AM 51.5550 8.8460 293° West 452 520 38,000  Level FlightAware
05:49AM 51.5940 8.7010 293° West 454 522 38,000  Level FlightAware
05:50AM 51.6270 8.5810 294° West 454 522 38,000  Level FlightAware
05:51AM 51.6590 8.4590 293° West 455 524 38,000  Level FlightAware
05:51AM 51.6950 8.3220 293° West 453 521 38,000  Level FlightAware
05:52AM 51.7280 8.1970 293° West 452 520 38,000  Level FlightAware
05:53AM 51.7670 8.0490 293° West 450 518 38,000  Level FlightAware
05:53AM 51.7930 7.9460 292° West 450 518 38,000  Level FlightAware
05:54AM 51.8260 7.8200 293° West 449 517 38,000  Level FlightAware
05:55AM 51.8610 7.6840 293° West 447 514 38,000  Level FlightAware
05:55AM 51.8960 7.5440 292° West 444 511 38,000  Level FlightAware
05:56AM 51.9310 7.4060 292° West 440 506 38,000  Level FlightAware
05:57AM 51.9620 7.2840 292° West 439 505 38,000  Level FlightAware
05:58AM 51.9920 7.1660 292° West 439 505 38,000  Level FlightAware
05:58AM 52.0270 7.0230 292° West 441 507 38,000  Level FlightAware
05:59AM 52.0580 6.9010 292° West 438 504 38,000  Level FlightAware
06:00AM 52.0910 6.7670 292° West 437 503 38,000  Level FlightAware
06:00AM 52.1200 6.6480 292° West 438 504 38,000  Level FlightAware
06:01AM 52.1500 6.5240 292° West 440 506 38,000  Level FlightAware
06:02AM 52.1770 6.3830 287° West 441 507 38,000  Level FlightAware
06:02AM 52.2010 6.2500 286° West 441 507 38,000  Level FlightAware
06:03AM 52.2220 6.1240 285° West 437 503 38,000  Level FlightAware
06:04AM 52.2470 5.9860 287° West 435 501 38,000  Level FlightAware
06:05AM 52.2680 5.8640 286° West 433 498 38,000  Level FlightAware
06:05AM 52.2930 5.7160 285° West 429 494 38,000 -1,320 Level FlightAware
06:06AM 52.3080 5.6340 285° West 476 548 36,500  Descending FlightAware UK
06:06AM 52.3140 5.5960 285° West 429 494 38,000 1,560 Climbing FlightAware
06:07AM 52.3370 5.4660 286° West 430 495 38,000 -1,620 Level FlightAware
06:07AM 52.3403 5.4058 286° West 476 548 36,500 -2,700 Descending FlightAware UK
06:07AM 52.3553 5.3525 295° West 476 548 36,500 3,060 Level FlightAware UK
06:07AM 52.3600 5.3360 295° West 430 495 38,000  Climbing FlightAware
06:08AM 52.3748 5.2194 295° West 478 550 36,500  Descending FlightAware UK
06:08AM 52.3830 5.2030 295° West 431 496 38,000 1,620 Climbing FlightAware
06:09AM 52.4070 5.0610 286° West 431 496 38,000 -1,200 Level FlightAware
06:09AM 52.4197 4.9559 286° West 480 552 36,500  Descending FlightAware UK
06:09AM 52.4280 4.9350 286° West 431 496 38,000  Climbing FlightAware
06:10AM 52.4406 4.8439 286° West 478 550 36,500  Descending FlightAware UK
06:10AM 52.4490 4.8110 286° West 430 495 38,000  Climbing FlightAware
06:10AM 52.4604 4.7518 286° West 480 552 36,500 -2,280 Descending FlightAware UK
06:11AM 52.4717 4.6761 284° West 478 550 36,500 3,060 Level FlightAware UK
06:11AM 52.4730 4.6700 284° West 429 494 38,000  Climbing FlightAware
06:11AM 52.4853 4.6013 284° West 476 548 36,500  Descending FlightAware UK
06:12AM 52.4920 4.5560 284° West 430 495 38,000  Climbing FlightAware
06:12AM 52.5124 4.4318 284° West 476 548 36,500  Descending FlightAware UK
06:12AM 52.5130 4.4220 284° West 431 496 38,000  Climbing FlightAware
06:13AM 52.5275 4.3373 284° West 478 550 36,500  Descending FlightAware UK
06:13AM 52.5370 4.2730 284° West 433 498 38,000 1,560 Climbing FlightAware
06:14AM 52.5550 4.1660 286° West 435 501 38,000 -1,620 Level FlightAware
06:14AM 52.5684 4.0902 286° West 478 550 36,500  Descending FlightAware UK
06:14AM 52.5900 4.0130 286° West 446 513 38,000 1,260 Climbing FlightAware
06:15AM 52.6360 3.8990 304° West 456 525 38,000 -1,380 Level FlightAware
06:15AM 52.6750 3.8114 304° West 480 552 36,500  Descending FlightAware UK
06:16AM 52.6920 3.7700 304° West 456 525 38,000  Climbing FlightAware
06:16AM 52.7256 3.6927 304° West 478 550 36,500  Descending FlightAware UK
06:16AM 52.7420 3.6550 304° West 459 528 38,000  Climbing FlightAware
06:17AM 52.7842 3.5817 304° West 478 550 36,500  Descending FlightAware UK
06:17AM 52.8010 3.5550 304° West 472 543 38,000  Climbing FlightAware
06:17AM 52.8326 3.5077 304° West 480 552 36,500  Descending FlightAware UK
06:18AM 52.8570 3.4700 304° West 472 543 38,000  Climbing FlightAware
06:18AM 52.9087 3.3905 304° West 482 555 36,500  Descending FlightAware UK
06:19AM 52.9390 3.3450 304° West 469 540 38,000 1,320 Climbing FlightAware
06:19AM 53.0080 3.2390 317° Northwest 469 540 38,000 -1,320 Level FlightAware
06:20AM 53.0446 3.1622 317° Northwest 476 548 36,500  Descending FlightAware UK
06:20AM 53.0560 3.1230 317° Northwest 445 512 38,000 1,560 Climbing FlightAware
06:21AM 53.0780 3.0000 287° West 440 506 38,000 -1,500 Level FlightAware
06:21AM 53.0926 2.9116 287° West 480 552 36,500  Descending FlightAware UK
06:21AM 53.1020 2.8540 287° West 440 506 38,000  Climbing FlightAware
06:22AM 53.1186 2.7556 287° West 480 552 36,500  Descending FlightAware UK
06:22AM 53.1250 2.7170 287° West 441 507 38,000  Climbing FlightAware
06:22AM 53.1416 2.6188 287° West 480 552 36,500  Descending FlightAware UK
06:23AM 53.1510 2.5690 287° West 442 509 38,000  Climbing FlightAware
06:23AM 53.1716 2.4422 287° West 480 552 36,500  Descending FlightAware UK
06:23AM 53.1730 2.4350 287° West 443 510 38,000  Climbing FlightAware
06:24AM 53.1879 2.3435 287° West 482 555 36,500  Descending FlightAware UK
06:24AM 53.1960 2.2910 287° West 444 511 38,000  Climbing FlightAware
06:24AM 53.2066 2.2250 287° West 484 557 36,500 -2,700 Descending FlightAware UK
06:25AM 53.2160 2.1654 285° West 486 559 36,500 3,720 Level FlightAware UK
06:25AM 53.2180 2.1570 285° West 446 513 38,000 1,920 Climbing FlightAware
06:26AM 53.2390 2.0240 285° West 445 512 38,000 -1,380 Level FlightAware
06:26AM 53.2538 1.9268 285° West 486 559 36,500  Descending FlightAware UK
06:26AM 53.2620 1.8750 285° West 444 511 38,000  Climbing FlightAware
06:27AM 53.2727 1.8082 285° West 486 559 36,500  Descending FlightAware UK
06:27AM 53.2823 1.7471 285° West 443 510 38,000  Climbing FlightAware ADS-B
06:27AM 53.2911 1.6893 285° West 486 559 36,500  Descending FlightAware UK
06:27AM 53.2993 1.6374 285° West 442 509 38,000  Climbing FlightAware ADS-B
06:28AM 53.3094 1.5712 285° West 484 557 36,500  Descending FlightAware UK
06:28AM 53.3155 1.5327 285° West 442 509 38,000  Climbing FlightAware ADS-B
06:28AM 53.3276 1.4528 285° West 484 557 36,500  Descending FlightAware UK
06:29AM 53.3317 1.4270 285° West 443 510 38,000  Climbing FlightAware ADS-B
06:29AM 53.3427 1.3538 285° West 484 557 36,500 -240 Descending FlightAware UK
06:29AM 53.3469 1.3272 285° West 443 510 37,900 -360 Climbing FlightAware ADS-B
06:30AM 53.3690 1.1830 284° West 444 511 36,200 -3,240 Descending FlightAware
06:30AM 53.3820 1.0953 284° West 492 566 34,200 -1,380 Descending FlightAware UK
06:30AM 53.3890 1.0520 284° West 419 482 35,300 -2,520 Climbing FlightAware
06:31AM 53.3990 0.9824 284° West 480 552 32,700 -2,280 Descending FlightAware UK
06:31AM 53.4070 0.9250 284° West 412 474 33,800 -1,800 Climbing FlightAware
06:31AM 53.4096 0.9084 284° West 472 543 32,000 -8,820 Descending FlightAware UK
06:31AM 53.4150 0.8715 284° West 466 536 31,600 -2,340 Descending FlightAware UK
06:32AM 53.4257 0.7989 284° West 454 522 30,600 780 Descending FlightAware UK
06:32AM 53.4280 0.7850 284° West 399 459 32,000 -1,500 Climbing FlightAware
06:32AM 53.4361 0.7274 284° West 452 520 30,000 -4,200 Descending FlightAware UK
06:32AM 53.4438 0.6750 284° West 448 516 29,500 2,700 Descending FlightAware UK
06:33AM 53.4440 0.6770 284° West 385 443 31,000 -2,100 Climbing FlightAware
06:33AM 53.4561 0.5902 284° West 436 502 28,500 -4,200 Descending FlightAware UK
06:33AM 53.4633 0.5397 284° West 428 493 28,000 3,000 Descending FlightAware UK
06:33AM 53.4630 0.5410 284° West 370 426 29,500 -2,040 Climbing FlightAware
06:34AM 53.4706 0.4896 284° West 422 486 27,400 -4,200 Descending FlightAware UK
06:34AM 53.4800 0.4241 284° West 418 481 26,700 2,460 Descending FlightAware UK
06:34AM 53.4780 0.4380 284° West 360 414 28,400 3,900 Climbing FlightAware
06:34AM 53.4875 0.3714 283° West 359 413 28,000 -480 Descending FlightAware ADS-B
06:35AM 53.4993 0.2826 283° West 362 417 28,000  Level FlightAware ADS-B
06:35AM 53.5107 0.1972 283° West 363 418 28,000  Level FlightAware ADS-B
06:36AM 53.5222 0.1117 283° West 363 418 28,000  Level FlightAware ADS-B
06:36AM 53.5332 0.0288 283° West 363 418 28,000 -1,560 Level FlightAware ADS-B
06:37AM 53.5437 -0.0499 283° West 424 488 26,500  Descending FlightAware UK
06:37AM 53.5475 -0.0792 283° West 366 421 28,000 2,040 Climbing FlightAware ADS-B
06:38AM 53.5593 -0.1684 283° West 366 421 28,000 -1,860 Level FlightAware ADS-B
06:38AM 53.5655 -0.2162 283° West 426 490 26,500  Descending FlightAware UK
06:38AM 53.5720 -0.2660 283° West 365 420 28,000  Climbing FlightAware
06:39AM 53.5826 -0.3487 283° West 422 486 26,500  Descending FlightAware UK
06:39AM 53.5860 -0.3760 283° West 366 421 28,000  Climbing FlightAware
06:39AM 53.5956 -0.4485 283° West 424 488 26,500 -2,220 Descending FlightAware UK
06:40AM 53.6020 -0.4979 282° West 422 486 26,500 4,080 Level FlightAware UK
06:40AM 53.6030 -0.5060 282° West 368 423 28,000  Climbing FlightAware
06:40AM 53.6106 -0.5647 282° West 422 486 26,500  Descending FlightAware UK
06:40AM 53.6186 -0.6287 282° West 371 427 28,000 1,620 Climbing FlightAware ADS-B
06:41AM 53.6300 -0.7192 282° West 373 429 28,000 -1,680 Level FlightAware ADS-B
06:41AM 53.6384 -0.7859 282° West 424 488 26,500 -2,280 Descending FlightAware UK
06:42AM 53.6448 -0.8364 282° West 424 488 26,500 2,880 Level FlightAware UK
06:42AM 53.6495 -0.8736 282° West 373 429 28,000  Climbing FlightAware ADS-B
06:42AM 53.6596 -0.9557 282° West 424 488 26,500  Descending FlightAware UK
06:42AM 53.6610 -0.9700 282° West 375 432 28,000  Climbing FlightAware
06:43AM 53.6681 -1.0242 282° West 424 488 26,500  Descending FlightAware UK
06:43AM 53.6713 -1.0514 282° West 375 432 28,000  Climbing FlightAware ADS-B
06:43AM 53.6788 -1.1104 282° West 422 486 26,500 -2,280 Descending FlightAware UK
06:44AM 53.6892 -1.1976 281° West 418 481 26,100 1,500 Descending FlightAware UK
06:44AM 53.6910 -1.2170 281° West 376 433 27,500 -2,040 Climbing FlightAware
06:44AM 53.7002 -1.2835 281° West 420 483 25,100 -4,500 Descending FlightAware UK
06:44AM 53.7142 -1.3322 296° West 410 472 24,600 3,420 Descending FlightAware UK
06:44AM 53.7130 -1.3280 296° West 390 449 26,200 -2,040 Climbing FlightAware
06:45AM 53.7331 -1.3778 296° West 410 472 24,000 -4,140 Descending FlightAware UK
06:45AM 53.7670 -1.4271 319° Northwest 404 465 23,400 1,920 Descending FlightAware UK
06:45AM 53.7680 -1.4280 319° Northwest 414 476 24,900 -1,800 Climbing FlightAware
06:46AM 53.8141 -1.4813 319° Northwest 400 460 22,500 -1,500 Descending FlightAware UK
06:46AM 53.8300 -1.4990 319° Northwest 400 460 23,900 -1,380 Climbing FlightAware
06:46AM 53.8691 -1.5434 319° Northwest 392 451 21,700 -4,080 Descending FlightAware UK
06:47AM 53.8960 -1.5739 326° Northwest 384 442 21,200 2,580 Descending FlightAware UK
06:47AM 53.8970 -1.5750 326° Northwest 385 443 22,700 360 Climbing FlightAware
06:47AM 53.9550 -1.6420 326° Northwest 377 434 21,500 -3,000 Descending FlightAware
06:48AM 54.0002 -1.6940 326° Northwest 376 433 19,400 -1,380 Descending FlightAware UK
06:48AM 54.0120 -1.7080 326° Northwest 359 413 20,600 -360 Climbing FlightAware
06:49AM 54.0750 -1.7810 326° Northwest 353 406 19,100 -3,420 Descending FlightAware
06:49AM 54.1057 -1.8165 326° Northwest 358 412 16,900 -1,740 Descending FlightAware UK
06:49AM 54.1360 -1.8410 326° Northwest 355 409 17,800 900 Climbing FlightAware
06:50AM 54.1600 -1.8460 353° North 356 410 17,500 -1,380 Descending FlightAware
06:50AM 54.1920 -1.8420 North 357 411 17,000 -3,840 Descending FlightAware
06:50AM 54.2291 -1.8353 North 344 396 15,100 -3,000 Descending FlightAware UK
06:51AM 54.2678 -1.8298 North 346 398 14,900 2,880 Descending FlightAware UK
06:51AM 54.2660 -1.8300 North 350 403 16,400 -1,380 Climbing FlightAware
06:51AM 54.2966 -1.8257 North 344 396 14,500 -4,380 Descending FlightAware UK
06:51AM 54.3251 -1.8216 North 340 391 14,000 1,380 Descending FlightAware UK
06:52AM 54.3420 -1.8200 North 339 390 15,200 540 Climbing FlightAware
06:52AM 54.4000 -1.8110 North 323 372 14,500 -1,440 Descending FlightAware
06:53AM 54.4670 -1.8020 North 322 371 13,200 -3,300 Descending FlightAware
06:53AM 54.5041 -1.7960 North 328 377 10,800 -1,800 Descending FlightAware UK
06:54AM 54.5270 -1.7850 North 327 376 12,000 -1,680 Climbing FlightAware
06:54AM 54.5745 -1.7627 North 320 368 9,500 -1,680 Descending FlightAware UK
06:54AM 54.5820 -1.7590 North 324 373 10,900 960 Climbing FlightAware
06:55AM 54.6480 -1.7280 15° North 294 338 10,400 -2,220 Descending FlightAware
06:55AM 54.6722 -1.7152 15° North 282 325 8,600 -780 Descending FlightAware UK
06:56AM 54.6970 -1.7030 15° North 274 315 9,900 780 Climbing FlightAware
06:56AM 54.7340 -1.6850 16° North 269 310 9,300 -1,140 Descending FlightAware
06:57AM 54.7640 -1.6700 16° North 267 307 8,800 -1,200 Descending FlightAware
06:57AM 54.7790 -1.6630 15° North 267 307 8,500 -5,100 Descending FlightAware
06:57AM 54.8018 -1.6519 15° North 266 306 6,600 -1,200 Descending FlightAware UK
06:57AM 54.8160 -1.6420 15° North 266 306 7,900 2,040 Climbing FlightAware
06:58AM 54.8320 -1.6270 28° Northeast 267 307 7,600 -1,380 Descending FlightAware
06:58AM 54.8540 -1.6050 30° Northeast 262 302 7,100 -4,260 Descending FlightAware
06:58AM 54.8729 -1.5853 30° Northeast 258 297 5,000 -1,560 Descending FlightAware UK
06:59AM 54.8880 -1.5710 30° Northeast 261 300 6,200 780 Climbing FlightAware
06:59AM 54.9100 -1.5490 30° Northeast 254 292 5,500 -1,380 Descending FlightAware
06:59AM 54.9290 -1.5300 30° Northeast 245 282 5,300 -3,000 Descending FlightAware
07:00AM 54.9504 -1.5080 30° Northeast 228 262 3,500 -600 Descending FlightAware UK
07:00AM 54.9490 -1.5110 30° Northeast 237 273 5,100 -540 Climbing FlightAware
07:00AM 54.9735 -1.4849 30° Northeast 218 251 3,300 -600 Descending FlightAware UK
07:00AM 54.9920 -1.4660 30° Northeast 209 241 4,600 1,020 Climbing FlightAware
07:01AM 55.0120 -1.4450 31° Northeast 194 223 4,200 -3,300 Descending FlightAware
07:01AM 55.0307 -1.4239 31° Northeast 184 212 2,100 -1,380 Descending FlightAware UK
07:01AM 55.0400 -1.4240 31° Northeast 177 204 3,400 2,700 Climbing FlightAware
07:02AM 55.0480 -1.4280 344° North 172 198 3,200 -1,200 Descending FlightAware
07:02AM 55.0710 -1.4430 340° North 166 191 2,600 -1,200 Descending FlightAware
07:02AM 55.0760 -1.4600 297° West 162 186 2,300 -4,200 Descending FlightAware
07:03AM 55.0779 -1.4858 297° West 1 1 500 -480 Descending FlightAware UK
07:03AM 55.0790 -1.4930 297° West 160 184 2,100 3,180 Climbing FlightAware
07:03AM 55.0800 -1.5180 274° West 148 170 2,100 -180 Level FlightAware
07:03AM 55.0760 -1.5460 256° West 149 171 2,000 -360 Descending FlightAware
07:04AM 55.0730 -1.5570 245° Southwest 157 181 1,900 -900 Descending FlightAware
07:04AM 55.0650 -1.5890 246° West 132 152 1,400 -900 Descending FlightAware
07:04AM 55.0620 -1.5980 240° Southwest 127 146 1,300 -600 Descending FlightAware
07:05AM 55.0550 -1.6260 246° West 128 147 1,000 -720 Descending FlightAware
07:05AM 55.0470 -1.6540 244° Southwest 127 146 600 -900 Descending FlightAware
07:06AM 55.0410 -1.6790 247° West 129 148 200 -960 Descending FlightAware